AirNav   Everest Fuels
 
 449 users online  

42PA Ransome Heliport
Exton, Pennsylvania, USA

GOING TO EXTON?


FAA INFORMATION EFFECTIVE 18 JUNE 2020

Location

FAA Identifier: 42PA
Lat/Long: 40-01-21.3850N 075-35-09.7470W
40-01.356417N 075-35.162450W
40.0226069,-75.5860408
(estimated)
Elevation: 575 ft. / 175 m (estimated)
Variation: 11W (1985)
From city: 1 mile NE of EXTON, PA
Time zone: UTC -4 (UTC -5 during Standard Time)
Zip code: 19355

Heliport Operations

Heliport use: Private use. Permission required prior to landing
Activation date: 06/1980
Control tower: no
ARTCC: NEW YORK CENTER
FSS: WILLIAMSPORT FLIGHT SERVICE STATION
Attendance: MON-FRI 0700-2330
Wind indicator: lighted
Segmented circle: no
Lights: SS-SR

Heliport Communications

UNICOM: 123.05
WX AWOS-3T at OQN (2.0 nm S): 121.4 ((610) 692-6190)
WX ASOS at PTW (13 nm N): 119.425 (610-495-0823)
WX AWOS-3 at MQS (13 nm W): 126.25 (610-384-6132)
WX AWOS-3 at LOM (16 nm NE): 118.925 (215-646-1068)
WX ASOS at PHL (18 nm SE): PHONE 215-492-9617
  • CLEARANCE DELIVERY PHILADELPHIA APCH TF 800-354-9884.

Nearby radio navigation aids

VOR radial/distance  VOR name  Freq  Var
MXEr041/7.4MODENA VORTAC113.2009W
PTWr195/12.0POTTSTOWN VORTAC116.5009W
DQOr013/20.7DUPONT VORTAC114.0010W
OODr341/26.6WOODSTOWN VORTAC112.8010W
LRPr109/32.9LANCASTER VOR/DME117.3009W
ETXr181/33.8EAST TEXAS VOR/DME110.2009W
ARDr256/34.1YARDLEY VOR/DME108.2010W

 
NDB name  Hdg/Dist  Freq  Var  ID
AMBLER258/15.127512WING .. -. --.

Heliport Services

Fuel available: A
Parking: hangars and tiedowns
Airframe service: MAJOR
Powerplant service: MAJOR

Runway Information

Helipad H1

Dimensions: 65 x 65 ft. / 20 x 20 m
Surface: asphalt, in good condition
Runway edge lights: PERI
Latitude: 40-01.356417N
Longitude: 075-35.162450W
Elevation: 575.0 ft.
Traffic pattern: leftleft

Heliport Ownership and Management from official FAA records

Ownership: Privately-owned
Owner: WLB PARTNERS
2975 GALLOWAY ROAD
BENSALEM, PA 19020
Phone 215-639-4300
Manager: CLAY C. BROMLEY
1420 PHOENIXVILLE PIKE
WEST CHESTER, PA 19380
Phone 215-245-3756

Heliport Operational Statistics

Aircraft operations: avg 34/week *
49% transient general aviation
49% local general aviation
1% military
* for 12-month period ending 30 May 2007

Additional Remarks

A52-H1 24 FT TREES 372 FT NW OF HELIPAD; +74 FT TREES 725 FT SOUTH OF HELIPAD.
INGRESS 120/315 DEG, EGRESS 300/135 DEG.
FREQ 128.95 AVBL FOR USE AT HELI.
FOR CD CTC PHILADELPHIA APCH AT 800-354-9884.

Instrument Procedures

There are no published instrument procedures at 42PA.

Some nearby airports with instrument procedures:

KOQN - Brandywine Regional Airport (2 nm S)
N10 - Perkiomen Valley Airport (13 nm NE)
KPTW - Heritage Field Airport (13 nm N)
KMQS - Chester County G O Carlson Airport (13 nm W)
N57 - New Garden Airport (14 nm SW)
N47 - Pottstown Municipal Airport (15 nm N)
KLOM - Wings Field Airport (16 nm NE)
KPHL - Philadelphia International Airport (18 nm SE)
7N7 - Spitfire Aerodrome (19 nm SE)
 
Loc | Ops | Rwys | IFR | FBO | Links
Com | Nav | Svcs | Stats | Notes
Aerial photo
No photo
 
Sectional chart

 
Airport distance calculator
Flying to Ransome Heliport? Find the distance to fly.

From to 42PA

Sunrise and sunset
Times for 05-Jul-2020
 Local
(UTC-4)
 Zulu
(UTC)
Morning civil twilight05:0809:08
Sunrise05:4109:41
Sunset20:3300:33
Evening civil twilight21:0601:06

Current date and time
Zulu (UTC)  05-Jul-2020 04:53:42
Local (UTC-4)  05-Jul-2020 00:53:42
 
METAR
KOQN 
2nm S 
050435Z AUTO 00000KT 7SM CLR 23/21 A2996 RMK AO2
KPTW 
13nm N 
050354Z AUTO 00000KT 6SM HZ CLR 24/20 A2996 RMK AO2 SLP141 T02390200
KMQS 
13nm W 
050435Z AUTO 00000KT 5SM BR CLR 22/21 A2998 RMK AO2
KLOM 
16nm NE 
050435Z AUTO 22004KT 10SM CLR 24/21 A2996 RMK AO2 T02400210
KPHL 
19nm SE 
050354Z 21005KT 10SM SCT250 24/21 A2994 RMK AO2 SLP139 T02440211
TAF
KPHL 
19nm SE 
050241Z 0503/0606 19006KT P6SM SCT150 FM050400 VRB03KT P6SM SCT080 FM051400 27005KT P6SM FEW080 FEW150 FM052000 24006KT P6SM SCT080
KILG 
21nm S 
041720Z 0418/0518 11004KT P6SM SCT030 BKN045 FM042100 15005KT P6SM VCTS SCT045CB BKN080 FM050000 18003KT P6SM SCT080 FM050400 VRB02KT 6SM BR SCT060 FM051500 30005KT P6SM SCT070
NOTAMs
Click for the latest NOTAMs
NOTAMs are issued by the DoD/FAA and will open in a separate window not controlled by AirNav.

 

 
 

Would you like to see your business listed on this page?

 If your business provides an interesting product or service to pilots, flight crews, aircraft, or users of the Ransome Heliport, you should consider listing it here.  To start the listing process, click on the button below
 
Add a business
 

Other Pages about Ransome Heliport

Update a link
 
Copyright © AirNav, LLC. All rights reserved. Privacy Policy  Contact